Time;durP1;ratioP1;P1;durP2;ratioP2;P2;SDS_P1;SDS_P2;PMS_P1;PMS_P2;Temp;Humidity;BMP_temperature;BMP_pressure;BME280_temperature;BME280_humidity;BME280_pressure;Samples;Min_cycle;Max_cycle;Signal;HPM_P1;HPM_P2
2023/04/22 00:00:46;;;;;;;11.68;5.30;;;;;;;;;;10293759;28;20031;-56
2023/04/22 00:05:47;;;;;;;12.65;4.45;;;;;;;;;;10284671;28;20471;-53
2023/04/22 00:10:48;;;;;;;13.38;4.68;;;;;;;;;;10284063;28;20077;-52
2023/04/22 00:15:48;;;;;;;10.98;4.30;;;;;;;;;;10288464;28;20030;-54
2023/04/22 00:20:49;;;;;;;17.13;5.25;;;;;;;;;;10283418;28;20058;-52
2023/04/22 00:25:50;;;;;;;15.18;4.82;;;;;;;;;;10291714;28;20077;-51
2023/04/22 00:30:51;;;;;;;12.10;4.25;;;;;;;;;;10285223;28;20077;-54
2023/04/22 00:35:53;;;;;;;19.55;5.05;;;;;;;;;;10285961;28;20533;-53
2023/04/22 00:40:54;;;;;;;22.58;4.72;;;;;;;;;;10286755;28;20027;-52
2023/04/22 00:45:56;;;;;;;14.57;4.57;;;;;;;;;;10288392;28;20422;-51
2023/04/22 00:50:57;;;;;;;14.80;4.32;;;;;;;;;;10289784;28;20438;-54
2023/04/22 00:55:58;;;;;;;12.10;4.68;;;;;;;;;;10288678;28;20093;-56
2023/04/22 01:00:58;;;;;;;18.23;4.20;;;;;;;;;;10275692;28;20018;-52
2023/04/22 01:05:59;;;;;;;12.05;5.00;;;;;;;;;;10283631;28;20399;-54
2023/04/22 01:11:01;;;;;;;11.10;3.97;;;;;;;;;;10286011;28;20030;-53
2023/04/22 01:16:01;;;;;;;11.65;4.20;;;;;;;;;;10286784;28;20383;-50
2023/04/22 01:21:03;;;;;;;6.80;3.67;;;;;;;;;;10288579;28;20062;-52
2023/04/22 01:26:04;;;;;;;11.68;3.85;;;;;;;;;;10286970;28;20540;-49
2023/04/22 01:31:05;;;;;;;9.70;3.60;;;;;;;;;;10286686;28;20050;-51
2023/04/22 01:36:06;;;;;;;11.43;3.78;;;;;;;;;;10281548;28;20053;-51
2023/04/22 01:41:07;;;;;;;8.60;4.00;;;;;;;;;;10286661;28;20044;-53
2023/04/22 01:46:08;;;;;;;11.45;4.05;;;;;;;;;;10289108;28;20107;-55
2023/04/22 01:51:09;;;;;;;14.98;4.00;;;;;;;;;;10288684;28;20039;-53
2023/04/22 01:56:09;;;;;;;7.93;4.15;;;;;;;;;;10287860;28;20383;-51
2023/04/22 02:01:12;;;;;;;11.90;3.45;;;;;;;;;;10281840;28;20054;-49
2023/04/22 02:06:13;;;;;;;13.50;3.90;;;;;;;;;;10286910;28;20033;-55
2023/04/22 02:11:14;;;;;;;6.82;3.35;;;;;;;;;;10285373;28;20467;-48
2023/04/22 02:16:14;;;;;;;5.95;3.58;;;;;;;;;;10286740;28;20035;-52
2023/04/22 02:21:15;;;;;;;5.95;3.78;;;;;;;;;;10270519;28;20055;-57
2023/04/22 02:26:16;;;;;;;5.25;3.40;;;;;;;;;;10281355;28;20446;-52
2023/04/22 02:31:16;;;;;;;9.35;4.18;;;;;;;;;;10282842;28;20037;-52
2023/04/22 02:36:17;;;;;;;6.18;3.47;;;;;;;;;;10285295;28;20026;-53
2023/04/22 02:41:17;;;;;;;6.82;3.20;;;;;;;;;;10283359;28;20034;-51
2023/04/22 02:46:18;;;;;;;9.27;3.78;;;;;;;;;;10284358;28;20034;-54
2023/04/22 02:51:20;;;;;;;4.45;3.10;;;;;;;;;;10276021;28;20558;-51
2023/04/22 02:56:20;;;;;;;7.28;3.08;;;;;;;;;;10285463;28;20023;-48
2023/04/22 03:01:21;;;;;;;6.35;3.50;;;;;;;;;;10283442;28;20030;-52
2023/04/22 03:06:22;;;;;;;4.80;2.97;;;;;;;;;;10283525;28;20057;-50
2023/04/22 03:11:22;;;;;;;5.80;3.45;;;;;;;;;;10283267;28;20042;-50
2023/04/22 03:16:23;;;;;;;3.30;2.97;;;;;;;;;;10284050;28;20511;-47
2023/04/22 03:21:24;;;;;;;8.05;3.50;;;;;;;;;;10283507;28;20403;-51
2023/04/22 03:26:24;;;;;;;4.38;2.92;;;;;;;;;;10282313;28;20372;-49
2023/04/22 03:31:25;;;;;;;5.45;3.05;;;;;;;;;;10282542;28;20034;-54
2023/04/22 03:36:27;;;;;;;3.55;2.92;;;;;;;;;;10277553;28;20033;-49
2023/04/22 03:41:28;;;;;;;6.18;3.58;;;;;;;;;;10281998;28;20058;-48
2023/04/22 03:46:29;;;;;;;6.97;3.13;;;;;;;;;;10282428;28;20121;-48
2023/04/22 03:51:29;;;;;;;6.45;2.60;;;;;;;;;;10279559;28;20475;-48
2023/04/22 03:56:30;;;;;;;7.35;3.28;;;;;;;;;;10275376;28;20022;-48
2023/04/22 04:01:30;;;;;;;3.13;2.50;;;;;;;;;;10275413;28;20046;-51
2023/04/22 04:06:32;;;;;;;5.07;3.05;;;;;;;;;;10282796;28;20420;-52
2023/04/22 04:11:32;;;;;;;4.00;3.00;;;;;;;;;;10283980;28;20031;-51
2023/04/22 04:16:33;;;;;;;5.03;3.40;;;;;;;;;;10276605;28;20035;-50
2023/04/22 04:21:33;;;;;;;4.35;3.60;;;;;;;;;;10283407;28;20035;-49
2023/04/22 04:26:34;;;;;;;6.43;3.08;;;;;;;;;;10282618;28;20035;-51
2023/04/22 04:31:35;;;;;;;6.40;2.78;;;;;;;;;;10281934;28;20077;-51
2023/04/22 04:36:35;;;;;;;4.47;2.60;;;;;;;;;;10279367;28;20030;-51
2023/04/22 04:41:37;;;;;;;4.13;2.65;;;;;;;;;;10281765;28;20019;-51
2023/04/22 04:46:38;;;;;;;3.45;2.83;;;;;;;;;;10270862;28;20030;-51
2023/04/22 04:51:38;;;;;;;5.20;2.95;;;;;;;;;;10289578;28;20383;-50
2023/04/22 04:56:39;;;;;;;4.40;2.63;;;;;;;;;;10286593;28;20026;-48
2023/04/22 05:01:40;;;;;;;3.70;3.00;;;;;;;;;;10290914;28;20038;-51
2023/04/22 05:06:40;;;;;;;7.25;3.05;;;;;;;;;;10283455;28;20031;-51
2023/04/22 05:11:41;;;;;;;3.25;2.60;;;;;;;;;;10282128;28;20030;-51
2023/04/22 05:16:41;;;;;;;4.50;3.00;;;;;;;;;;10286370;28;20043;-51
2023/04/22 05:21:42;;;;;;;2.90;2.25;;;;;;;;;;10288555;28;20061;-52
2023/04/22 05:26:43;;;;;;;5.68;2.63;;;;;;;;;;10288950;28;20035;-49
2023/04/22 05:31:43;;;;;;;4.35;2.75;;;;;;;;;;10289230;28;20038;-51
2023/04/22 05:36:44;;;;;;;3.38;2.70;;;;;;;;;;10284780;28;20113;-48
2023/04/22 05:41:45;;;;;;;5.47;2.70;;;;;;;;;;10284989;28;20035;-49
2023/04/22 05:46:46;;;;;;;3.72;2.75;;;;;;;;;;10287922;28;20039;-52
2023/04/22 05:51:46;;;;;;;2.67;2.38;;;;;;;;;;10288460;28;20094;-52
2023/04/22 05:56:47;;;;;;;3.25;2.40;;;;;;;;;;10287722;28;20023;-52
2023/04/22 06:01:47;;;;;;;3.67;2.42;;;;;;;;;;10286520;28;20089;-52
2023/04/22 06:06:52;;;;;;;5.78;2.53;;;;;;;;;;10282330;28;20046;-51
2023/04/22 06:11:53;;;;;;;3.72;2.97;;;;;;;;;;10286908;28;20109;-53
2023/04/22 06:16:53;;;;;;;3.75;2.83;;;;;;;;;;10285761;28;20027;-52
2023/04/22 06:21:54;;;;;;;2.58;2.38;;;;;;;;;;10277055;28;20557;-50
2023/04/22 06:26:56;;;;;;;2.75;2.50;;;;;;;;;;10276107;28;20394;-49
2023/04/22 06:31:57;;;;;;;3.35;2.58;;;;;;;;;;10268556;28;20039;-52
2023/04/22 06:36:58;;;;;;;3.63;2.28;;;;;;;;;;10285811;28;20471;-52
2023/04/22 06:42:00;;;;;;;3.47;2.40;;;;;;;;;;10275000;28;20035;-49
2023/04/22 06:47:00;;;;;;;2.58;2.28;;;;;;;;;;10286395;28;20034;-48
2023/04/22 06:52:01;;;;;;;3.53;2.50;;;;;;;;;;10281424;28;20053;-52
2023/04/22 06:57:02;;;;;;;3.42;2.10;;;;;;;;;;10267509;28;20063;-52
2023/04/22 07:02:03;;;;;;;6.60;2.75;;;;;;;;;;10284382;28;20165;-49
2023/04/22 07:07:04;;;;;;;2.92;2.10;;;;;;;;;;10284028;28;20039;-54
2023/04/22 07:12:04;;;;;;;4.30;2.28;;;;;;;;;;10281474;28;20507;-48
2023/04/22 07:17:05;;;;;;;3.90;2.30;;;;;;;;;;10284984;28;20062;-51
2023/04/22 07:22:06;;;;;;;3.30;2.25;;;;;;;;;;10282681;28;20043;-51
2023/04/22 07:27:07;;;;;;;2.70;2.03;;;;;;;;;;10280896;28;20049;-50
2023/04/22 07:32:08;;;;;;;3.08;2.17;;;;;;;;;;10283557;28;20023;-51
2023/04/22 07:37:09;;;;;;;2.50;2.30;;;;;;;;;;10282827;28;20407;-47
2023/04/22 07:42:11;;;;;;;3.45;1.90;;;;;;;;;;10283018;28;20062;-51
2023/04/22 07:47:12;;;;;;;3.33;2.50;;;;;;;;;;10277244;28;20031;-52
2023/04/22 07:52:12;;;;;;;3.40;2.30;;;;;;;;;;10283592;28;20031;-49
2023/04/22 07:57:13;;;;;;;6.22;2.13;;;;;;;;;;10280504;28;20039;-48
2023/04/22 08:02:13;;;;;;;2.20;2.00;;;;;;;;;;10284288;28;20038;-49
2023/04/22 08:07:14;;;;;;;3.20;2.13;;;;;;;;;;10281875;28;20026;-49
2023/04/22 08:12:15;;;;;;;2.20;1.98;;;;;;;;;;10283840;28;20495;-49
2023/04/22 08:17:16;;;;;;;8.30;3.80;;;;;;;;;;10281504;28;20026;-54
2023/04/22 08:22:17;;;;;;;6.68;5.78;;;;;;;;;;10284117;28;20177;-50
2023/04/22 08:27:20;;;;;;;11.35;6.80;;;;;;;;;;10290850;28;20144;-52
2023/04/22 08:32:22;;;;;;;7.32;6.63;;;;;;;;;;10291240;28;20410;-49
2023/04/22 08:37:22;;;;;;;9.63;6.20;;;;;;;;;;10291133;28;20039;-51
2023/04/22 08:42:23;;;;;;;6.82;5.90;;;;;;;;;;10283290;28;20035;-52
2023/04/22 08:47:25;;;;;;;8.90;5.93;;;;;;;;;;10289121;28;20435;-52
2023/04/22 08:52:26;;;;;;;11.25;7.05;;;;;;;;;;10291521;28;21128;-51
2023/04/22 08:57:27;;;;;;;9.18;6.05;;;;;;;;;;10287287;28;20451;-50
2023/04/22 09:02:30;;;;;;;5.85;5.25;;;;;;;;;;10284156;28;20106;-52
2023/04/22 09:07:32;;;;;;;5.53;5.03;;;;;;;;;;10257648;28;20046;-59
2023/04/22 09:12:32;;;;;;;7.03;5.72;;;;;;;;;;10289407;28;20471;-52
2023/04/22 09:17:37;;;;;;;6.60;5.85;;;;;;;;;;10286620;28;20026;-51
2023/04/22 09:22:47;;;;;;;8.55;5.38;;;;;;;;;;10287883;28;20034;-52
2023/04/22 09:27:52;;;;;;;10.18;6.10;;;;;;;;;;10288376;28;20213;-52
2023/04/22 09:33:00;;;;;;;8.05;6.60;;;;;;;;;;10284261;28;20423;-55
2023/04/22 09:38:06;;;;;;;;;;;;;;;;;;10286191;28;20041;-52
2023/04/22 09:43:09;;;;;;;11.90;6.95;;;;;;;;;;10286676;28;20076;-51
2023/04/22 09:48:16;;;;;;;12.30;6.60;;;;;;;;;;10275958;28;20038;-51
2023/04/22 09:53:19;;;;;;;7.80;6.35;;;;;;;;;;10273212;28;20116;-51
2023/04/22 09:58:22;;;;;;;7.72;5.88;;;;;;;;;;10282287;28;20126;-51
2023/04/22 10:03:23;;;;;;;7.30;5.78;;;;;;;;;;10279220;28;20031;-55
2023/04/22 10:08:24;;;;;;;8.73;6.70;;;;;;;;;;10275011;28;20034;-51
2023/04/22 10:13:25;;;;;;;13.30;6.68;;;;;;;;;;10277724;28;20031;-52
2023/04/22 10:18:27;;;;;;;9.77;7.10;;;;;;;;;;10289300;28;20033;-51
2023/04/22 10:23:31;;;;;;;8.48;6.25;;;;;;;;;;10296525;28;20055;-52
2023/04/22 10:28:32;;;;;;;13.55;7.93;;;;;;;;;;10281498;28;20034;-52
2023/04/22 10:33:37;;;;;;;8.50;7.60;;;;;;;;;;10271055;28;20031;-51
2023/04/22 10:38:54;;;;;;;10.73;8.27;;;;;;;;;;10281987;28;20047;-52
2023/04/22 10:44:06;;;;;;;10.02;8.13;;;;;;;;;;10276795;28;20031;-52
2023/04/22 10:49:07;;;;;;;9.60;7.40;;;;;;;;;;10281744;28;20031;-52
2023/04/22 10:54:27;;;;;;;9.73;7.80;;;;;;;;;;10281567;28;20387;-50
2023/04/22 10:59:32;;;;;;;10.65;7.95;;;;;;;;;;10282834;28;20034;-51
2023/04/22 11:04:34;;;;;;;15.05;9.18;;;;;;;;;;10281612;28;20023;-52
2023/04/22 11:09:40;;;;;;;11.68;7.93;;;;;;;;;;10276670;28;20030;-52
2023/04/22 11:14:40;;;;;;;9.88;7.65;;;;;;;;;;10256659;28;20027;-49
2023/04/22 11:19:41;;;;;;;14.90;9.60;;;;;;;;;;10269183;28;20054;-58
2023/04/22 11:24:58;;;;;;;19.38;9.82;;;;;;;;;;10275171;28;20098;-54
2023/04/22 11:30:07;;;;;;;14.65;9.10;;;;;;;;;;10281311;28;20023;-53
2023/04/22 11:35:21;;;;;;;13.32;9.30;;;;;;;;;;10272709;28;20533;-53
2023/04/22 11:40:31;;;;;;;10.68;8.80;;;;;;;;;;10283219;28;20045;-53
2023/04/22 11:45:35;;;;;;;11.13;8.73;;;;;;;;;;10284547;28;20031;-50
2023/04/22 11:50:41;;;;;;;16.10;9.75;;;;;;;;;;10276790;28;20035;-52
2023/04/22 11:55:43;;;;;;;19.60;10.20;;;;;;;;;;10282634;28;20039;-59
2023/04/22 12:00:47;;;;;;;14.70;10.73;;;;;;;;;;10294075;28;20038;-53
2023/04/22 12:05:57;;;;;;;12.13;10.02;;;;;;;;;;10290006;28;20125;-53
2023/04/22 12:11:04;;;;;;;11.88;9.73;;;;;;;;;;10290936;28;20035;-54
2023/04/22 12:16:13;;;;;;;15.55;10.27;;;;;;;;;;10290936;28;20467;-53
2023/04/22 12:21:20;;;;;;;14.43;10.98;;;;;;;;;;10289861;28;20043;-52
2023/04/22 12:26:23;;;;;;;12.85;10.07;;;;;;;;;;10284343;28;20583;-51
2023/04/22 12:31:24;;;;;;;14.05;10.93;;;;;;;;;;10283761;28;20022;-51
2023/04/22 12:36:25;;;;;;;13.93;10.57;;;;;;;;;;10287434;28;20430;-53
2023/04/22 12:41:26;;;;;;;12.93;9.70;;;;;;;;;;10290026;28;20031;-56
2023/04/22 12:46:26;;;;;;;10.82;9.45;;;;;;;;;;10289891;28;20027;-56
2023/04/22 12:51:27;;;;;;;15.80;9.98;;;;;;;;;;10281787;28;20038;-54
2023/04/22 12:56:28;;;;;;;11.50;9.35;;;;;;;;;;10280256;28;20029;-64
2023/04/22 13:01:29;;;;;;;13.57;10.40;;;;;;;;;;10276594;28;20027;-50
2023/04/22 13:06:31;;;;;;;11.48;9.82;;;;;;;;;;10281444;28;20491;-57
2023/04/22 13:11:32;;;;;;;15.27;10.15;;;;;;;;;;10290061;28;20039;-61
2023/04/22 13:16:32;;;;;;;16.08;10.48;;;;;;;;;;10286314;28;20038;-56
2023/04/22 13:21:33;;;;;;;13.20;10.25;;;;;;;;;;10292239;28;20050;-52
2023/04/22 13:26:35;;;;;;;13.80;10.07;;;;;;;;;;10287293;28;20126;-51
2023/04/22 13:31:37;;;;;;;11.70;9.75;;;;;;;;;;10284702;28;20538;-54
2023/04/22 13:36:38;;;;;;;13.30;9.50;;;;;;;;;;10285508;28;20027;-51
2023/04/22 13:41:38;;;;;;;12.95;9.73;;;;;;;;;;10289657;28;20031;-54
2023/04/22 13:46:40;;;;;;;13.27;8.70;;;;;;;;;;10288220;28;20066;-52
2023/04/22 13:51:41;;;;;;;15.63;9.38;;;;;;;;;;10280769;28;20041;-51
2023/04/22 13:56:42;;;;;;;15.60;10.07;;;;;;;;;;10289052;28;20027;-64
2023/04/22 14:01:43;;;;;;;14.65;11.05;;;;;;;;;;10283267;28;20031;-52
2023/04/22 14:06:43;;;;;;;21.38;10.60;;;;;;;;;;10286481;28;20085;-52
2023/04/22 14:11:44;;;;;;;18.33;11.32;;;;;;;;;;10292258;28;20019;-55
2023/04/22 14:16:44;;;;;;;14.77;10.85;;;;;;;;;;10287506;28;20663;-51
2023/04/22 14:21:45;;;;;;;17.77;11.73;;;;;;;;;;10283892;28;20518;-51
2023/04/22 14:26:46;;;;;;;12.60;10.50;;;;;;;;;;10295084;28;20454;-50
2023/04/22 14:31:48;;;;;;;14.20;10.52;;;;;;;;;;10283372;28;20478;-54
2023/04/22 14:36:49;;;;;;;16.67;10.15;;;;;;;;;;10287174;28;20058;-50
2023/04/22 14:41:50;;;;;;;16.33;10.20;;;;;;;;;;10264341;28;20082;-53
2023/04/22 14:46:50;;;;;;;13.52;9.45;;;;;;;;;;10283673;28;20058;-49
2023/04/22 14:51:51;;;;;;;12.48;9.70;;;;;;;;;;10285316;28;20035;-53
2023/04/22 14:56:54;;;;;;;11.25;8.30;;;;;;;;;;10276650;28;20850;-62
2023/04/22 15:01:54;;;;;;;14.38;9.40;;;;;;;;;;10280028;28;20513;-56
2023/04/22 15:06:56;;;;;;;12.93;9.32;;;;;;;;;;10283659;28;20034;-57
2023/04/22 15:11:58;;;;;;;15.93;9.73;;;;;;;;;;10281852;28;20035;-50
2023/04/22 15:17:01;;;;;;;12.23;8.95;;;;;;;;;;10279057;28;20047;-54
2023/04/22 15:22:02;;;;;;;17.77;7.97;;;;;;;;;;10284175;28;20051;-51
2023/04/22 15:27:02;;;;;;;11.27;8.13;;;;;;;;;;10280038;28;20058;-50
2023/04/22 15:32:05;;;;;;;9.55;6.30;;;;;;;;;;10281369;28;20029;-51
2023/04/22 15:37:06;;;;;;;14.55;7.80;;;;;;;;;;10283452;28;20402;-51
2023/04/22 15:42:06;;;;;;;16.73;7.78;;;;;;;;;;10281993;28;20406;-48
2023/04/22 15:47:08;;;;;;;11.48;7.15;;;;;;;;;;10284597;28;20498;-48
2023/04/22 15:52:09;;;;;;;8.60;6.78;;;;;;;;;;10279553;28;20368;-51
2023/04/22 15:57:09;;;;;;;9.68;7.47;;;;;;;;;;10284112;28;20034;-53
2023/04/22 16:02:10;;;;;;;13.13;6.80;;;;;;;;;;10280279;28;20031;-53
2023/04/22 16:07:11;;;;;;;13.75;7.47;;;;;;;;;;10287139;28;20181;-53
2023/04/22 16:12:12;;;;;;;12.25;6.65;;;;;;;;;;10269733;28;20022;-53
2023/04/22 16:17:14;;;;;;;11.68;8.05;;;;;;;;;;10278154;28;20023;-51
2023/04/22 16:22:15;;;;;;;10.05;7.22;;;;;;;;;;10276552;28;20145;-49
2023/04/22 16:27:17;;;;;;;9.18;7.28;;;;;;;;;;10282816;28;20398;-52
2023/04/22 16:32:18;;;;;;;8.95;7.28;;;;;;;;;;10265184;28;20034;-51
2023/04/22 16:37:18;;;;;;;10.25;7.53;;;;;;;;;;10282503;28;20031;-51
2023/04/22 16:42:19;;;;;;;9.57;7.03;;;;;;;;;;10284797;28;20061;-52
2023/04/22 16:47:19;;;;;;;9.18;6.70;;;;;;;;;;10288604;28;20039;-52
2023/04/22 16:52:20;;;;;;;8.15;6.05;;;;;;;;;;10280799;28;20035;-48
2023/04/22 16:57:20;;;;;;;8.55;5.63;;;;;;;;;;10290016;28;20031;-51
2023/04/22 17:02:21;;;;;;;8.85;5.40;;;;;;;;;;10286553;28;20081;-50
2023/04/22 17:07:22;;;;;;;5.88;5.28;;;;;;;;;;10286777;28;20349;-51
2023/04/22 17:12:22;;;;;;;7.35;5.45;;;;;;;;;;10282647;28;20030;-52
2023/04/22 17:17:23;;;;;;;7.30;5.07;;;;;;;;;;10261507;28;20092;-55
2023/04/22 17:22:26;;;;;;;9.82;5.00;;;;;;;;;;10246608;28;20386;-60
2023/04/22 17:27:27;;;;;;;5.65;5.07;;;;;;;;;;10288200;28;20031;-60
2023/04/22 17:32:28;;;;;;;10.70;5.05;;;;;;;;;;10278479;28;20023;-51
2023/04/22 17:37:28;;;;;;;7.47;5.30;;;;;;;;;;10288324;28;20071;-57
2023/04/22 17:42:29;;;;;;;5.97;4.95;;;;;;;;;;10291203;28;20065;-48
2023/04/22 17:47:30;;;;;;;6.35;5.22;;;;;;;;;;10293501;28;20035;-58
2023/04/22 17:52:31;;;;;;;6.38;4.97;;;;;;;;;;10293264;28;20082;-57
2023/04/22 17:57:31;;;;;;;9.60;5.53;;;;;;;;;;10294740;28;20644;-61
2023/04/22 18:02:32;;;;;;;6.97;5.30;;;;;;;;;;10288174;28;20027;-57
2023/04/22 18:07:33;;;;;;;6.85;5.53;;;;;;;;;;10265915;28;20093;-52
2023/04/22 18:12:34;;;;;;;13.93;4.82;;;;;;;;;;10298309;28;20570;-47
2023/04/22 18:17:35;;;;;;;8.40;5.32;;;;;;;;;;10289371;28;20491;-50
2023/04/22 18:22:35;;;;;;;8.25;5.80;;;;;;;;;;10251939;28;20039;-51
2023/04/22 18:27:36;;;;;;;9.90;5.60;;;;;;;;;;10279537;28;20046;-50
2023/04/22 18:32:37;;;;;;;6.22;5.47;;;;;;;;;;10250454;28;20031;-52
2023/04/22 18:37:37;;;;;;;8.82;5.40;;;;;;;;;;10299432;28;20038;-47
2023/04/22 18:42:38;;;;;;;8.90;5.68;;;;;;;;;;10284965;28;20041;-50
2023/04/22 18:47:39;;;;;;;7.72;4.95;;;;;;;;;;10293399;28;20042;-57
2023/04/22 18:52:41;;;;;;;10.32;4.93;;;;;;;;;;10275337;28;20037;-60
2023/04/22 18:57:42;;;;;;;6.93;5.03;;;;;;;;;;10292598;28;20042;-49
2023/04/22 19:02:44;;;;;;;11.57;4.90;;;;;;;;;;10284552;28;20038;-61
2023/04/22 19:07:45;;;;;;;5.40;4.25;;;;;;;;;;10266306;28;20102;-51
2023/04/22 19:12:46;;;;;;;8.63;5.00;;;;;;;;;;10250546;28;20121;-51
2023/04/22 19:17:47;;;;;;;7.57;4.72;;;;;;;;;;10261239;28;20038;-56
2023/04/22 19:22:48;;;;;;;8.52;4.25;;;;;;;;;;10272990;28;20053;-52
2023/04/22 19:27:48;;;;;;;7.18;4.40;;;;;;;;;;10278749;28;20514;-50
2023/04/22 19:32:49;;;;;;;8.30;3.95;;;;;;;;;;10289380;28;20034;-50
2023/04/22 19:37:50;;;;;;;8.60;4.25;;;;;;;;;;10279016;28;20023;-52
2023/04/22 19:42:50;;;;;;;9.55;4.93;;;;;;;;;;10282183;28;20028;-51
2023/04/22 19:47:51;;;;;;;13.48;4.97;;;;;;;;;;10281060;28;20039;-51
2023/04/22 19:53:04;;;;;;;21.75;4.80;;;;;;;;;;10276952;28;20031;-53
2023/04/22 19:58:05;;;;;;;20.25;4.70;;;;;;;;;;10278783;28;20027;-51
2023/04/22 20:03:06;;;;;;;12.90;5.40;;;;;;;;;;10265745;28;20039;-52
2023/04/22 20:08:08;;;;;;;15.85;4.30;;;;;;;;;;10288325;28;20133;-52
2023/04/22 20:13:09;;;;;;;6.97;4.72;;;;;;;;;;10281555;28;20105;-52
2023/04/22 20:18:10;;;;;;;14.68;4.82;;;;;;;;;;10260986;28;20035;-51
2023/04/22 20:23:13;;;;;;;5.13;4.15;;;;;;;;;;10278755;28;21045;-51
2023/04/22 20:28:14;;;;;;;7.72;4.53;;;;;;;;;;10281576;28;20454;-56
2023/04/22 20:33:16;;;;;;;9.48;4.47;;;;;;;;;;10290517;28;20102;-50
2023/04/22 20:38:19;;;;;;;7.97;4.13;;;;;;;;;;10286784;28;20042;-50
2023/04/22 20:43:19;;;;;;;8.00;4.45;;;;;;;;;;10282371;28;20054;-53
2023/04/22 20:48:20;;;;;;;5.80;4.43;;;;;;;;;;10284465;28;20027;-55
2023/04/22 20:53:22;;;;;;;7.82;3.80;;;;;;;;;;10275939;28;20639;-52
2023/04/22 20:58:23;;;;;;;9.15;3.80;;;;;;;;;;10287708;28;20038;-51
2023/04/22 21:03:25;;;;;;;12.15;4.30;;;;;;;;;;10286387;28;20376;-61
2023/04/22 21:08:26;;;;;;;4.45;3.85;;;;;;;;;;10271869;28;20065;-49
2023/04/22 21:13:27;;;;;;;7.05;3.80;;;;;;;;;;10296714;28;20522;-51
2023/04/22 21:18:31;;;;;;;7.60;4.57;;;;;;;;;;10281394;28;20117;-48
2023/04/22 21:23:32;;;;;;;17.42;4.10;;;;;;;;;;10278757;28;20173;-49
2023/04/22 21:28:34;;;;;;;6.25;3.80;;;;;;;;;;10273016;28;20041;-47
2023/04/22 21:33:34;;;;;;;8.38;4.03;;;;;;;;;;10292357;28;20039;-49
2023/04/22 21:38:35;;;;;;;5.43;4.03;;;;;;;;;;10288388;28;20528;-47
2023/04/22 21:43:35;;;;;;;8.75;3.80;;;;;;;;;;10300247;28;20023;-51
2023/04/22 21:48:36;;;;;;;7.78;3.78;;;;;;;;;;10281182;28;20039;-52
2023/04/22 21:53:37;;;;;;;5.18;3.83;;;;;;;;;;10295242;28;20026;-52
2023/04/22 21:58:37;;;;;;;7.93;4.43;;;;;;;;;;10285371;28;20058;-52
2023/04/22 22:03:38;;;;;;;5.50;3.90;;;;;;;;;;10289803;28;20030;-53
2023/04/22 22:08:39;;;;;;;7.15;4.10;;;;;;;;;;10284867;28;20042;-50
2023/04/22 22:13:40;;;;;;;7.63;3.90;;;;;;;;;;10293808;28;20758;-54
2023/04/22 22:18:40;;;;;;;9.32;4.20;;;;;;;;;;10290749;28;20101;-51
2023/04/22 22:23:41;;;;;;;5.32;3.67;;;;;;;;;;10270233;28;20043;-51
2023/04/22 22:28:42;;;;;;;6.43;4.63;;;;;;;;;;10272961;28;20065;-51
2023/04/22 22:33:43;;;;;;;5.30;3.72;;;;;;;;;;10299062;28;20037;-52
2023/04/22 22:38:44;;;;;;;7.38;3.78;;;;;;;;;;10280212;28;20134;-52
2023/04/22 22:43:44;;;;;;;7.80;4.22;;;;;;;;;;10291657;28;20031;-51
2023/04/22 22:48:46;;;;;;;9.25;4.00;;;;;;;;;;10297976;28;20698;-51
2023/04/22 22:53:46;;;;;;;5.25;3.92;;;;;;;;;;10293330;28;20474;-51
2023/04/22 22:58:47;;;;;;;9.02;4.00;;;;;;;;;;10281058;28;20031;-51
2023/04/22 23:03:47;;;;;;;5.20;3.42;;;;;;;;;;10280585;28;20382;-52
2023/04/22 23:08:48;;;;;;;5.38;3.78;;;;;;;;;;10273503;28;20031;-52
2023/04/22 23:13:49;;;;;;;12.35;4.15;;;;;;;;;;10274104;28;20031;-51
2023/04/22 23:18:51;;;;;;;13.65;5.15;;;;;;;;;;10285913;28;20027;-52
2023/04/22 23:23:52;;;;;;;20.35;5.80;;;;;;;;;;10283968;28;20043;-52
2023/04/22 23:28:53;;;;;;;27.45;6.32;;;;;;;;;;10291815;28;20035;-49
2023/04/22 23:33:56;;;;;;;14.65;5.07;;;;;;;;;;10281100;28;20034;-54
2023/04/22 23:38:56;;;;;;;26.30;5.88;;;;;;;;;;10282664;28;20093;-51
2023/04/22 23:43:57;;;;;;;25.05;6.03;;;;;;;;;;10284883;28;20080;-52
2023/04/22 23:48:58;;;;;;;12.65;5.10;;;;;;;;;;10276991;28;20035;-50
2023/04/22 23:53:59;;;;;;;18.98;5.85;;;;;;;;;;10277640;28;20081;-51
2023/04/22 23:59:00;;;;;;;9.70;4.75;;;;;;;;;;10280988;28;20027;-50
